sensor_id;sensor_type;location;lat;lon;timestamp;pressure;altitude;pressure_sealevel;temperature;humidity
13312;BME280;34033;48.672;9.376;2023-02-28T00:00:34;99210.06;;;1.56;54.43
13312;BME280;34033;48.672;9.376;2023-02-28T00:03:01;99209.13;;;1.61;54.08
13312;BME280;34033;48.672;9.376;2023-02-28T00:05:27;99206.09;;;1.71;53.31
13312;BME280;34033;48.672;9.376;2023-02-28T00:07:53;99216.13;;;1.67;53.98
13312;BME280;34033;48.672;9.376;2023-02-28T00:10:20;99214.19;;;1.67;54.25
13312;BME280;34033;48.672;9.376;2023-02-28T00:12:48;99207.13;;;1.75;54.80
13312;BME280;34033;48.672;9.376;2023-02-28T00:15:14;99209.19;;;1.70;55.20
13312;BME280;34033;48.672;9.376;2023-02-28T00:17:39;99210.56;;;1.58;54.62
13312;BME280;34033;48.672;9.376;2023-02-28T00:20:05;99215.75;;;1.60;54.41
13312;BME280;34033;48.672;9.376;2023-02-28T00:22:38;99203.94;;;1.59;55.12
13312;BME280;34033;48.672;9.376;2023-02-28T00:25:04;99212.00;;;1.56;53.97
13312;BME280;34033;48.672;9.376;2023-02-28T00:27:30;99205.38;;;1.57;55.12
13312;BME280;34033;48.672;9.376;2023-02-28T00:29:55;99203.94;;;1.59;55.06
13312;BME280;34033;48.672;9.376;2023-02-28T00:32:21;99201.22;;;1.68;54.64
13312;BME280;34033;48.672;9.376;2023-02-28T00:34:46;99208.56;;;1.73;53.98
13312;BME280;34033;48.672;9.376;2023-02-28T00:37:12;99211.00;;;1.74;54.18
13312;BME280;34033;48.672;9.376;2023-02-28T00:39:38;99206.56;;;1.64;55.01
13312;BME280;34033;48.672;9.376;2023-02-28T00:42:04;99212.56;;;1.66;55.00
13312;BME280;34033;48.672;9.376;2023-02-28T00:44:30;99207.38;;;1.65;55.25
13312;BME280;34033;48.672;9.376;2023-02-28T00:46:56;99208.88;;;1.49;54.36
13312;BME280;34033;48.672;9.376;2023-02-28T00:49:23;99216.69;;;1.55;55.52
13312;BME280;34033;48.672;9.376;2023-02-28T00:51:49;99213.31;;;1.58;55.11
13312;BME280;34033;48.672;9.376;2023-02-28T00:54:15;99209.88;;;1.53;54.78
13312;BME280;34033;48.672;9.376;2023-02-28T00:56:40;99216.69;;;1.55;55.39
13312;BME280;34033;48.672;9.376;2023-02-28T00:59:06;99211.56;;;1.62;55.23
13312;BME280;34033;48.672;9.376;2023-02-28T01:01:31;99206.91;;;1.49;54.78
13312;BME280;34033;48.672;9.376;2023-02-28T01:03:56;99210.69;;;1.53;55.04
13312;BME280;34033;48.672;9.376;2023-02-28T01:06:22;99203.59;;;1.61;55.43
13312;BME280;34033;48.672;9.376;2023-02-28T01:08:47;99207.38;;;1.65;56.00
13312;BME280;34033;48.672;9.376;2023-02-28T01:11:15;99203.97;;;1.68;55.65
13312;BME280;34033;48.672;9.376;2023-02-28T01:13:41;99205.50;;;1.74;54.49
13312;BME280;34033;48.672;9.376;2023-02-28T01:16:07;99206.44;;;1.70;54.80
13312;BME280;34033;48.672;9.376;2023-02-28T01:18:32;99192.28;;;1.62;54.87
13312;BME280;34033;48.672;9.376;2023-02-28T01:20:58;99206.34;;;1.61;55.43
13312;BME280;34033;48.672;9.376;2023-02-28T01:23:23;99203.97;;;1.68;54.73
13312;BME280;34033;48.672;9.376;2023-02-28T01:25:50;99196.84;;;1.67;55.70
13312;BME280;34033;48.672;9.376;2023-02-28T01:28:16;99199.28;;;1.68;55.69
13312;BME280;34033;48.672;9.376;2023-02-28T01:30:41;99200.03;;;1.60;55.20
13312;BME280;34033;48.672;9.376;2023-02-28T01:33:06;99199.03;;;1.56;55.69
13312;BME280;34033;48.672;9.376;2023-02-28T01:35:33;99198.28;;;1.64;56.98
13312;BME280;34033;48.672;9.376;2023-02-28T01:37:59;99204.38;;;1.75;57.34
13312;BME280;34033;48.672;9.376;2023-02-28T01:40:24;99195.41;;;1.47;55.29
13312;BME280;34033;48.672;9.376;2023-02-28T01:42:49;99191.03;;;1.46;56.22
13312;BME280;34033;48.672;9.376;2023-02-28T01:45:29;99191.53;;;1.48;56.37
13312;BME280;34033;48.672;9.376;2023-02-28T01:48:02;99193.78;;;1.46;57.11
13312;BME280;34033;48.672;9.376;2023-02-28T01:50:33;99194.91;;;1.45;57.64
13312;BME280;34033;48.672;9.376;2023-02-28T01:53:02;99189.75;;;1.30;56.28
13312;BME280;34033;48.672;9.376;2023-02-28T01:55:30;99181.38;;;1.35;58.17
13312;BME280;34033;48.672;9.376;2023-02-28T01:58:00;99188.31;;;1.33;57.85
13312;BME280;34033;48.672;9.376;2023-02-28T02:00:28;99184.00;;;1.40;58.16
13312;BME280;34033;48.672;9.376;2023-02-28T02:03:06;99184.78;;;1.54;57.32
13312;BME280;34033;48.672;9.376;2023-02-28T02:05:37;99171.47;;;1.56;56.66
13312;BME280;34033;48.672;9.376;2023-02-28T02:08:05;99177.63;;;1.53;57.44
13312;BME280;34033;48.672;9.376;2023-02-28T02:10:43;99183.19;;;1.40;57.10
13312;BME280;34033;48.672;9.376;2023-02-28T02:16:37;99173.47;;;1.20;57.94
13312;BME280;34033;48.672;9.376;2023-02-28T02:24:58;99161.44;;;0.94;59.17
13312;BME280;34033;48.672;9.376;2023-02-28T02:35:53;99155.63;;;0.81;60.11
13312;BME280;34033;48.672;9.376;2023-02-28T02:38:35;99144.00;;;0.84;59.37
13312;BME280;34033;48.672;9.376;2023-02-28T02:41:18;99147.50;;;0.76;59.60
13312;BME280;34033;48.672;9.376;2023-02-28T02:43:48;99154.22;;;0.70;59.71
13312;BME280;34033;48.672;9.376;2023-02-28T02:46:21;99148.53;;;0.53;59.66
13312;BME280;34033;48.672;9.376;2023-02-28T02:48:50;99148.41;;;0.72;61.16
13312;BME280;34033;48.672;9.376;2023-02-28T02:51:20;99148.09;;;0.73;59.50
13312;BME280;34033;48.672;9.376;2023-02-28T02:53:51;99149.50;;;0.84;60.75
13312;BME280;34033;48.672;9.376;2023-02-28T02:56:19;99153.59;;;0.73;59.34
13312;BME280;34033;48.672;9.376;2023-02-28T02:58:49;99152.38;;;0.79;60.43
13312;BME280;34033;48.672;9.376;2023-02-28T03:01:21;99154.59;;;0.77;60.76
13312;BME280;34033;48.672;9.376;2023-02-28T03:03:55;99159.50;;;0.80;60.67
13312;BME280;34033;48.672;9.376;2023-02-28T03:06:22;99158.69;;;0.80;60.51
13312;BME280;34033;48.672;9.376;2023-02-28T03:08:47;99164.19;;;0.94;60.81
13312;BME280;34033;48.672;9.376;2023-02-28T03:11:14;99165.78;;;0.95;60.68
13312;BME280;34033;48.672;9.376;2023-02-28T03:21:39;99166.81;;;0.99;59.86
13312;BME280;34033;48.672;9.376;2023-02-28T03:24:08;99164.13;;;1.07;60.46
13312;BME280;34033;48.672;9.376;2023-02-28T03:26:39;99164.00;;;1.12;59.04
13312;BME280;34033;48.672;9.376;2023-02-28T03:29:28;99168.78;;;1.20;60.12
13312;BME280;34033;48.672;9.376;2023-02-28T03:32:03;99167.84;;;1.25;59.93
13312;BME280;34033;48.672;9.376;2023-02-28T03:37:02;99170.28;;;1.27;60.37
13312;BME280;34033;48.672;9.376;2023-02-28T03:39:37;99164.44;;;1.28;59.32
13312;BME280;34033;48.672;9.376;2023-02-28T03:42:09;99160.88;;;1.27;59.93
13312;BME280;34033;48.672;9.376;2023-02-28T03:44:57;99155.59;;;1.31;60.00
13312;BME280;34033;48.672;9.376;2023-02-28T03:47:37;99157.41;;;1.36;59.96
13312;BME280;34033;48.672;9.376;2023-02-28T03:50:08;99166.09;;;1.29;60.71
13312;BME280;34033;48.672;9.376;2023-02-28T03:52:42;99152.44;;;1.24;60.04
13312;BME280;34033;48.672;9.376;2023-02-28T03:55:12;99160.69;;;1.24;60.26
13312;BME280;34033;48.672;9.376;2023-02-28T03:58:01;99164.66;;;1.32;60.08
13312;BME280;34033;48.672;9.376;2023-02-28T04:00:34;99159.16;;;1.32;60.55
13312;BME280;34033;48.672;9.376;2023-02-28T04:03:02;99157.75;;;1.20;59.13
13312;BME280;34033;48.672;9.376;2023-02-28T04:05:27;99159.69;;;1.20;59.94
13312;BME280;34033;48.672;9.376;2023-02-28T04:07:54;99155.31;;;1.19;60.16
13312;BME280;34033;48.672;9.376;2023-02-28T04:10:28;99165.69;;;1.22;60.96
13312;BME280;34033;48.672;9.376;2023-02-28T04:12:53;99163.31;;;1.74;77.93
13312;BME280;34033;48.672;9.376;2023-02-28T04:15:19;99162.34;;;1.70;64.76
13312;BME280;34033;48.672;9.376;2023-02-28T04:17:47;99159.19;;;1.62;61.45
13312;BME280;34033;48.672;9.376;2023-02-28T04:20:13;99160.06;;;1.49;60.45
13312;BME280;34033;48.672;9.376;2023-02-28T04:22:38;99156.31;;;1.45;61.24
13312;BME280;34033;48.672;9.376;2023-02-28T04:25:04;99165.22;;;1.42;60.42
13312;BME280;34033;48.672;9.376;2023-02-28T04:27:30;99159.19;;;1.40;60.82
13312;BME280;34033;48.672;9.376;2023-02-28T04:29:56;99162.72;;;1.32;61.03
13312;BME280;34033;48.672;9.376;2023-02-28T04:32:21;99166.91;;;1.30;60.89
13312;BME280;34033;48.672;9.376;2023-02-28T04:34:46;99162.03;;;1.27;60.34
13312;BME280;34033;48.672;9.376;2023-02-28T04:37:11;99168.31;;;1.27;61.01
13312;BME280;34033;48.672;9.376;2023-02-28T04:39:37;99165.22;;;1.20;61.58
13312;BME280;34033;48.672;9.376;2023-02-28T04:42:03;99157.66;;;1.25;62.08
13312;BME280;34033;48.672;9.376;2023-02-28T04:44:28;99165.47;;;1.32;61.97
13312;BME280;34033;48.672;9.376;2023-02-28T04:46:54;99162.38;;;1.34;61.40
13312;BME280;34033;48.672;9.376;2023-02-28T04:49:19;99163.03;;;1.31;60.96
13312;BME280;34033;48.672;9.376;2023-02-28T04:51:44;99162.94;;;1.22;61.92
13312;BME280;34033;48.672;9.376;2023-02-28T04:54:10;99159.34;;;1.35;61.87
13312;BME280;34033;48.672;9.376;2023-02-28T04:56:35;99161.97;;;1.40;62.30
13312;BME280;34033;48.672;9.376;2023-02-28T04:59:01;99164.59;;;1.45;61.75
13312;BME280;34033;48.672;9.376;2023-02-28T05:01:30;99161.56;;;1.55;61.15
13312;BME280;34033;48.672;9.376;2023-02-28T05:03:59;99161.44;;;1.60;61.73
13312;BME280;34033;48.672;9.376;2023-02-28T05:06:26;99157.06;;;2.13;80.81
13312;BME280;34033;48.672;9.376;2023-02-28T05:08:52;99153.91;;;3.45;83.66
13312;BME280;34033;48.672;9.376;2023-02-28T05:11:24;99149.59;;;4.66;73.26
13312;BME280;34033;48.672;9.376;2023-02-28T05:13:51;99142.16;;;5.82;82.30
13312;BME280;34033;48.672;9.376;2023-02-28T05:16:17;99141.47;;;5.53;59.66
13312;BME280;34033;48.672;9.376;2023-02-28T05:18:42;99140.28;;;5.21;58.51
13312;BME280;34033;48.672;9.376;2023-02-28T05:21:35;99145.94;;;5.03;59.84
13312;BME280;34033;48.672;9.376;2023-02-28T05:24:03;99139.66;;;4.94;57.87
13312;BME280;34033;48.672;9.376;2023-02-28T05:26:30;99156.47;;;4.60;53.17
13312;BME280;34033;48.672;9.376;2023-02-28T05:28:56;99162.53;;;4.15;55.13
13312;BME280;34033;48.672;9.376;2023-02-28T05:31:22;99164.84;;;4.13;60.04
13312;BME280;34033;48.672;9.376;2023-02-28T05:33:48;99153.53;;;4.27;61.17
13312;BME280;34033;48.672;9.376;2023-02-28T05:36:13;99157.06;;;4.45;59.42
13312;BME280;34033;48.672;9.376;2023-02-28T05:38:39;99161.25;;;4.51;58.29
13312;BME280;34033;48.672;9.376;2023-02-28T05:41:08;99165.50;;;4.48;56.90
13312;BME280;34033;48.672;9.376;2023-02-28T05:43:35;99163.84;;;4.56;58.51
13312;BME280;34033;48.672;9.376;2023-02-28T05:46:03;99170.31;;;4.60;56.04
13312;BME280;34033;48.672;9.376;2023-02-28T05:48:29;99165.59;;;4.60;54.01
13312;BME280;34033;48.672;9.376;2023-02-28T05:50:57;99171.94;;;4.61;56.61
13312;BME280;34033;48.672;9.376;2023-02-28T05:53:22;99168.75;;;4.50;56.20
13312;BME280;34033;48.672;9.376;2023-02-28T05:55:48;99176.88;;;4.55;57.75
13312;BME280;34033;48.672;9.376;2023-02-28T05:58:13;99174.41;;;4.63;56.69
13312;BME280;34033;48.672;9.376;2023-02-28T06:00:38;99169.63;;;4.72;56.51
13312;BME280;34033;48.672;9.376;2023-02-28T06:03:03;99173.69;;;4.36;53.57
13312;BME280;34033;48.672;9.376;2023-02-28T06:05:29;99167.88;;;4.29;55.78
13312;BME280;34033;48.672;9.376;2023-02-28T06:07:54;99186.25;;;4.34;59.43
13312;BME280;34033;48.672;9.376;2023-02-28T06:10:20;99182.22;;;4.14;56.74
13312;BME280;34033;48.672;9.376;2023-02-28T06:12:45;99177.22;;;4.07;57.58
13312;BME280;34033;48.672;9.376;2023-02-28T06:15:15;99173.16;;;4.05;55.57
13312;BME280;34033;48.672;9.376;2023-02-28T06:17:41;99176.47;;;3.55;52.49
13312;BME280;34033;48.672;9.376;2023-02-28T06:20:08;99177.94;;;3.01;53.35
13312;BME280;34033;48.672;9.376;2023-02-28T06:22:35;99184.41;;;2.88;60.21
13312;BME280;34033;48.672;9.376;2023-02-28T06:25:01;99183.47;;;3.18;60.12
13312;BME280;34033;48.672;9.376;2023-02-28T06:27:27;99183.97;;;3.46;60.31
13312;BME280;34033;48.672;9.376;2023-02-28T06:29:55;99194.03;;;3.59;56.37
13312;BME280;34033;48.672;9.376;2023-02-28T06:32:21;99199.75;;;3.63;54.38
13312;BME280;34033;48.672;9.376;2023-02-28T06:34:46;99205.91;;;3.77;57.14
13312;BME280;34033;48.672;9.376;2023-02-28T06:37:12;99201.69;;;3.71;57.41
13312;BME280;34033;48.672;9.376;2023-02-28T06:39:37;99198.09;;;3.70;55.12
13312;BME280;34033;48.672;9.376;2023-02-28T06:42:03;99215.53;;;3.62;56.76
13312;BME280;34033;48.672;9.376;2023-02-28T06:44:28;99212.28;;;3.69;57.78
13312;BME280;34033;48.672;9.376;2023-02-28T06:47:03;99210.78;;;3.80;58.10
13312;BME280;34033;48.672;9.376;2023-02-28T06:49:30;99212.56;;;4.02;58.66
13312;BME280;34033;48.672;9.376;2023-02-28T06:51:56;99209.97;;;3.97;54.19
13312;BME280;34033;48.672;9.376;2023-02-28T06:54:21;99210.06;;;4.09;57.27
13312;BME280;34033;48.672;9.376;2023-02-28T06:56:46;99215.56;;;4.26;56.79
13312;BME280;34033;48.672;9.376;2023-02-28T06:59:12;99213.88;;;4.51;57.68
13312;BME280;34033;48.672;9.376;2023-02-28T07:01:37;99211.50;;;4.70;57.34
13312;BME280;34033;48.672;9.376;2023-02-28T07:04:05;99217.97;;;4.45;54.06
13312;BME280;34033;48.672;9.376;2023-02-28T07:06:30;99221.91;;;4.27;51.90
13312;BME280;34033;48.672;9.376;2023-02-28T07:08:56;99220.19;;;4.13;56.76
13312;BME280;34033;48.672;9.376;2023-02-28T07:11:22;99234.31;;;4.20;56.86
13312;BME280;34033;48.672;9.376;2023-02-28T07:13:51;99220.41;;;4.38;56.90
13312;BME280;34033;48.672;9.376;2023-02-28T07:16:16;99235.50;;;4.57;56.74
13312;BME280;34033;48.672;9.376;2023-02-28T07:18:41;99219.22;;;4.85;57.74
13312;BME280;34033;48.672;9.376;2023-02-28T07:21:08;99236.22;;;4.75;53.70
13312;BME280;34033;48.672;9.376;2023-02-28T07:23:35;99231.81;;;4.83;54.75
13312;BME280;34033;48.672;9.376;2023-02-28T07:26:01;99224.97;;;4.80;53.43
13312;BME280;34033;48.672;9.376;2023-02-28T07:28:26;99234.66;;;4.66;54.12
13312;BME280;34033;48.672;9.376;2023-02-28T07:30:52;99228.78;;;4.67;52.42
13312;BME280;34033;48.672;9.376;2023-02-28T07:33:17;99235.41;;;4.75;54.86
13312;BME280;34033;48.672;9.376;2023-02-28T07:35:43;99231.28;;;4.89;54.32
13312;BME280;34033;48.672;9.376;2023-02-28T07:38:08;99235.56;;;5.08;53.00
13312;BME280;34033;48.672;9.376;2023-02-28T07:40:35;99227.34;;;5.20;53.43
13312;BME280;34033;48.672;9.376;2023-02-28T07:43:01;99233.19;;;5.27;53.13
13312;BME280;34033;48.672;9.376;2023-02-28T07:45:27;99231.94;;;5.16;50.48
13312;BME280;34033;48.672;9.376;2023-02-28T07:47:53;99234.72;;;5.16;52.92
13312;BME280;34033;48.672;9.376;2023-02-28T07:50:19;99232.06;;;5.19;52.26
13312;BME280;34033;48.672;9.376;2023-02-28T07:52:44;99238.31;;;5.37;54.01
13312;BME280;34033;48.672;9.376;2023-02-28T07:55:10;99230.13;;;5.40;52.28
13312;BME280;34033;48.672;9.376;2023-02-28T07:57:35;99223.41;;;5.50;52.59
13312;BME280;34033;48.672;9.376;2023-02-28T08:00:03;99239.16;;;5.58;52.67
13312;BME280;34033;48.672;9.376;2023-02-28T08:02:29;99235.94;;;5.68;52.46
13312;BME280;34033;48.672;9.376;2023-02-28T08:04:54;99234.19;;;5.64;51.47
13312;BME280;34033;48.672;9.376;2023-02-28T08:07:19;99235.22;;;5.59;50.37
13312;BME280;34033;48.672;9.376;2023-02-28T08:09:45;99245.59;;;5.50;50.42
13312;BME280;34033;48.672;9.376;2023-02-28T08:12:11;99242.50;;;5.22;49.71
13312;BME280;34033;48.672;9.376;2023-02-28T08:14:37;99246.91;;;5.23;50.67
13312;BME280;34033;48.672;9.376;2023-02-28T08:17:03;99253.72;;;5.26;51.16
13312;BME280;34033;48.672;9.376;2023-02-28T08:19:29;99255.44;;;5.18;50.36
13312;BME280;34033;48.672;9.376;2023-02-28T08:21:55;99255.03;;;4.99;50.28
13312;BME280;34033;48.672;9.376;2023-02-28T08:24:21;99259.19;;;4.76;48.73
13312;BME280;34033;48.672;9.376;2023-02-28T08:26:47;99248.63;;;4.78;51.59
13312;BME280;34033;48.672;9.376;2023-02-28T08:29:12;99250.00;;;4.92;52.13
13312;BME280;34033;48.672;9.376;2023-02-28T08:31:37;99248.63;;;5.07;52.05
13312;BME280;34033;48.672;9.376;2023-02-28T08:34:07;99254.81;;;5.13;50.80
13312;BME280;34033;48.672;9.376;2023-02-28T08:36:32;99243.97;;;5.20;49.80
13312;BME280;34033;48.672;9.376;2023-02-28T08:38:58;99251.09;;;5.29;52.59
13312;BME280;34033;48.672;9.376;2023-02-28T08:41:24;99248.31;;;5.29;50.15
13312;BME280;34033;48.672;9.376;2023-02-28T08:43:50;99243.22;;;5.40;51.60
13312;BME280;34033;48.672;9.376;2023-02-28T08:46:15;99250.78;;;5.52;50.70
13312;BME280;34033;48.672;9.376;2023-02-28T08:48:40;99256.69;;;5.50;49.43
13312;BME280;34033;48.672;9.376;2023-02-28T08:51:09;99263.03;;;5.51;50.22
13312;BME280;34033;48.672;9.376;2023-02-28T08:53:39;99265.19;;;5.45;48.72
13312;BME280;34033;48.672;9.376;2023-02-28T08:56:07;99256.00;;;5.53;50.04
13312;BME280;34033;48.672;9.376;2023-02-28T08:58:33;99255.69;;;5.46;48.79
13312;BME280;34033;48.672;9.376;2023-02-28T09:01:00;99255.53;;;5.51;49.30
13312;BME280;34033;48.672;9.376;2023-02-28T09:03:25;99260.38;;;5.54;47.69
13312;BME280;34033;48.672;9.376;2023-02-28T09:05:56;99255.56;;;5.42;46.34
13312;BME280;34033;48.672;9.376;2023-02-28T09:08:23;99255.28;;;5.35;47.63
13312;BME280;34033;48.672;9.376;2023-02-28T09:10:49;99266.06;;;5.37;49.60
13312;BME280;34033;48.672;9.376;2023-02-28T09:13:14;99264.59;;;5.39;48.66
13312;BME280;34033;48.672;9.376;2023-02-28T09:15:39;99275.47;;;5.44;48.74
13312;BME280;34033;48.672;9.376;2023-02-28T09:18:05;99263.25;;;5.66;49.95
13312;BME280;34033;48.672;9.376;2023-02-28T09:20:30;99262.88;;;5.47;47.55
13312;BME280;34033;48.672;9.376;2023-02-28T09:22:55;99276.28;;;5.66;48.63
13312;BME280;34033;48.672;9.376;2023-02-28T09:25:21;99271.69;;;5.49;46.96
13312;BME280;34033;48.672;9.376;2023-02-28T09:27:46;99270.97;;;5.61;47.96
13312;BME280;34033;48.672;9.376;2023-02-28T09:30:12;99274.59;;;5.73;47.88
13312;BME280;34033;48.672;9.376;2023-02-28T09:32:38;99273.25;;;5.79;47.71
13312;BME280;34033;48.672;9.376;2023-02-28T09:35:03;99272.69;;;5.95;48.24
13312;BME280;34033;48.672;9.376;2023-02-28T09:37:29;99275.91;;;5.97;47.47
13312;BME280;34033;48.672;9.376;2023-02-28T09:39:55;99285.81;;;6.06;46.24
13312;BME280;34033;48.672;9.376;2023-02-28T09:42:26;99286.53;;;6.15;46.35
13312;BME280;34033;48.672;9.376;2023-02-28T09:44:54;99285.97;;;6.01;44.79
13312;BME280;34033;48.672;9.376;2023-02-28T09:47:31;99290.13;;;6.16;45.94
13312;BME280;34033;48.672;9.376;2023-02-28T09:50:06;99295.25;;;6.26;46.94
13312;BME280;34033;48.672;9.376;2023-02-28T09:52:37;99285.88;;;6.31;46.34
13312;BME280;34033;48.672;9.376;2023-02-28T09:55:20;99291.16;;;6.23;45.33
13312;BME280;34033;48.672;9.376;2023-02-28T09:57:47;99290.78;;;6.13;44.73
13312;BME280;34033;48.672;9.376;2023-02-28T10:03:37;99295.34;;;6.29;46.10
13312;BME280;34033;48.672;9.376;2023-02-28T10:06:18;99288.28;;;6.20;44.92
13312;BME280;34033;48.672;9.376;2023-02-28T10:11:52;99295.78;;;6.52;45.41
13312;BME280;34033;48.672;9.376;2023-02-28T10:14:22;99292.94;;;6.61;45.88
13312;BME280;34033;48.672;9.376;2023-02-28T10:16:51;99311.38;;;6.78;46.24
13312;BME280;34033;48.672;9.376;2023-02-28T10:19:28;99296.75;;;6.68;44.31
13312;BME280;34033;48.672;9.376;2023-02-28T10:22:04;99301.06;;;6.90;45.63
13312;BME280;34033;48.672;9.376;2023-02-28T10:24:39;99319.03;;;6.93;46.69
13312;BME280;34033;48.672;9.376;2023-02-28T10:29:51;99309.78;;;7.01;44.69
13312;BME280;34033;48.672;9.376;2023-02-28T10:32:27;99309.19;;;6.38;43.32
13312;BME280;34033;48.672;9.376;2023-02-28T10:35:37;99308.56;;;6.65;45.80
13312;BME280;34033;48.672;9.376;2023-02-28T10:37:59;99296.81;;;6.93;46.73
13312;BME280;34033;48.672;9.376;2023-02-28T10:40:34;99298.66;;;7.13;45.84
13312;BME280;34033;48.672;9.376;2023-02-28T10:43:05;99297.63;;;7.42;46.31
13312;BME280;34033;48.672;9.376;2023-02-28T10:45:35;99301.22;;;7.30;42.86
13312;BME280;34033;48.672;9.376;2023-02-28T10:55:58;99292.03;;;7.66;45.39
13312;BME280;34033;48.672;9.376;2023-02-28T10:58:26;99285.63;;;7.78;43.85
13312;BME280;34033;48.672;9.376;2023-02-28T11:00:52;99295.66;;;7.54;44.41
13312;BME280;34033;48.672;9.376;2023-02-28T11:03:32;99297.47;;;7.63;44.11
13312;BME280;34033;48.672;9.376;2023-02-28T11:06:03;99291.09;;;7.62;41.95
13312;BME280;34033;48.672;9.376;2023-02-28T11:08:29;99290.97;;;7.71;43.06
13312;BME280;34033;48.672;9.376;2023-02-28T11:10:57;99299.81;;;7.61;43.49
13312;BME280;34033;48.672;9.376;2023-02-28T11:13:31;99305.00;;;7.74;44.29
13312;BME280;34033;48.672;9.376;2023-02-28T11:15:59;99300.56;;;7.85;43.46
13312;BME280;34033;48.672;9.376;2023-02-28T11:18:47;99297.28;;;7.95;43.30
13312;BME280;34033;48.672;9.376;2023-02-28T11:21:29;99286.03;;;8.04;43.66
13312;BME280;34033;48.672;9.376;2023-02-28T11:24:02;99283.50;;;8.27;43.98
13312;BME280;34033;48.672;9.376;2023-02-28T11:26:41;99285.56;;;8.42;42.38
13312;BME280;34033;48.672;9.376;2023-02-28T11:29:16;99284.97;;;8.64;43.50
13312;BME280;34033;48.672;9.376;2023-02-28T11:31:42;99277.44;;;8.96;43.82
13312;BME280;34033;48.672;9.376;2023-02-28T11:34:25;99279.66;;;9.22;42.17
13312;BME280;34033;48.672;9.376;2023-02-28T11:36:54;99267.09;;;9.12;41.09
13312;BME280;34033;48.672;9.376;2023-02-28T11:39:20;99266.63;;;9.10;40.40
13312;BME280;34033;48.672;9.376;2023-02-28T11:44:52;99268.91;;;8.46;40.05
13312;BME280;34033;48.672;9.376;2023-02-28T11:47:38;99262.66;;;8.49;41.17
13312;BME280;34033;48.672;9.376;2023-02-28T11:50:18;99256.03;;;8.13;41.20
13312;BME280;34033;48.672;9.376;2023-02-28T11:52:57;99264.56;;;7.52;41.57
13312;BME280;34033;48.672;9.376;2023-02-28T11:55:49;99260.88;;;7.36;42.25
13312;BME280;34033;48.672;9.376;2023-02-28T12:01:15;99266.69;;;6.83;42.87
13312;BME280;34033;48.672;9.376;2023-02-28T12:03:59;99265.47;;;6.59;42.87
13312;BME280;34033;48.672;9.376;2023-02-28T12:09:08;99255.09;;;6.81;44.72
13312;BME280;34033;48.672;9.376;2023-02-28T12:20:54;99240.59;;;7.88;45.04
13312;BME280;34033;48.672;9.376;2023-02-28T12:26:16;99232.66;;;8.02;42.16
13312;BME280;34033;48.672;9.376;2023-02-28T12:28:53;99229.50;;;7.76;42.74
13312;BME280;34033;48.672;9.376;2023-02-28T12:31:38;99232.88;;;7.69;42.58
13312;BME280;34033;48.672;9.376;2023-02-28T12:34:10;99235.19;;;7.67;42.24
13312;BME280;34033;48.672;9.376;2023-02-28T12:36:37;99230.66;;;7.75;42.99
13312;BME280;34033;48.672;9.376;2023-02-28T12:39:08;99228.34;;;7.77;43.12
13312;BME280;34033;48.672;9.376;2023-02-28T12:44:32;99212.84;;;7.91;43.66
13312;BME280;34033;48.672;9.376;2023-02-28T12:47:04;99217.94;;;8.17;45.44
13312;BME280;34033;48.672;9.376;2023-02-28T12:49:34;99215.81;;;8.70;46.40
13312;BME280;34033;48.672;9.376;2023-02-28T12:52:02;99223.66;;;8.64;41.28
13312;BME280;34033;48.672;9.376;2023-02-28T12:54:35;99214.81;;;8.78;41.70
13312;BME280;34033;48.672;9.376;2023-02-28T12:59:45;99209.38;;;9.16;44.80
13312;BME280;34033;48.672;9.376;2023-02-28T13:02:45;99194.34;;;9.21;40.70
13312;BME280;34033;48.672;9.376;2023-02-28T13:10:46;99196.59;;;9.15;43.06
13312;BME280;34033;48.672;9.376;2023-02-28T13:13:21;99190.97;;;9.47;42.03
13312;BME280;34033;48.672;9.376;2023-02-28T13:15:58;99188.38;;;9.38;39.79
13312;BME280;34033;48.672;9.376;2023-02-28T13:18:45;99175.78;;;9.63;40.76
13312;BME280;34033;48.672;9.376;2023-02-28T13:26:21;99182.31;;;9.90;40.14
13312;BME280;34033;48.672;9.376;2023-02-28T13:31:23;99181.22;;;10.14;40.48
13312;BME280;34033;48.672;9.376;2023-02-28T13:41:41;99169.81;;;10.23;40.32
13312;BME280;34033;48.672;9.376;2023-02-28T13:51:48;99168.69;;;10.27;39.13
13312;BME280;34033;48.672;9.376;2023-02-28T13:54:27;99181.44;;;10.25;38.81
13312;BME280;34033;48.672;9.376;2023-02-28T14:02:46;99166.56;;;10.21;38.95
13312;BME280;34033;48.672;9.376;2023-02-28T14:05:19;99172.00;;;10.33;38.30
13312;BME280;34033;48.672;9.376;2023-02-28T14:07:53;99170.88;;;10.37;38.95
13312;BME280;34033;48.672;9.376;2023-02-28T14:10:26;99175.47;;;10.49;38.47
13312;BME280;34033;48.672;9.376;2023-02-28T14:15:39;99167.72;;;11.11;38.57
13312;BME280;34033;48.672;9.376;2023-02-28T14:34:51;99179.84;;;11.18;37.30
13312;BME280;34033;48.672;9.376;2023-02-28T14:37:28;99184.63;;;11.18;38.04
13312;BME280;34033;48.672;9.376;2023-02-28T14:39:55;99179.38;;;11.43;39.50
13312;BME280;34033;48.672;9.376;2023-02-28T14:42:36;99173.38;;;11.70;39.72
13312;BME280;34033;48.672;9.376;2023-02-28T14:45:03;99176.44;;;12.62;50.35
13312;BME280;34033;48.672;9.376;2023-02-28T14:47:33;99171.19;;;13.56;36.41
13312;BME280;34033;48.672;9.376;2023-02-28T14:50:01;99169.63;;;13.11;35.38
13312;BME280;34033;48.672;9.376;2023-02-28T14:52:30;99174.53;;;13.17;35.02
13312;BME280;34033;48.672;9.376;2023-02-28T14:55:13;99177.72;;;12.72;35.29
13312;BME280;34033;48.672;9.376;2023-02-28T14:57:50;99178.09;;;12.30;35.11
13312;BME280;34033;48.672;9.376;2023-02-28T15:00:30;99180.72;;;12.12;36.43
13312;BME280;34033;48.672;9.376;2023-02-28T15:02:58;99181.69;;;11.93;35.65
13312;BME280;34033;48.672;9.376;2023-02-28T15:05:31;99185.34;;;11.67;36.92
13312;BME280;34033;48.672;9.376;2023-02-28T15:08:12;99179.06;;;11.74;37.31
13312;BME280;34033;48.672;9.376;2023-02-28T15:10:41;99180.56;;;11.68;36.46
13312;BME280;34033;48.672;9.376;2023-02-28T15:13:12;99188.47;;;11.62;36.86
13312;BME280;34033;48.672;9.376;2023-02-28T15:18:33;99201.53;;;11.51;37.94
13312;BME280;34033;48.672;9.376;2023-02-28T15:21:06;99199.88;;;11.77;38.20
13312;BME280;34033;48.672;9.376;2023-02-28T15:23:35;99190.09;;;11.93;37.48
13312;BME280;34033;48.672;9.376;2023-02-28T15:26:01;99189.50;;;11.77;36.78
13312;BME280;34033;48.672;9.376;2023-02-28T15:28:27;99193.66;;;11.60;35.73